createdAt,value
2017-04-18T03:00:59.982Z,61.71
2017-04-18T03:01:25.662Z,61.94
2017-04-18T03:01:51.231Z,61.91
2017-04-18T03:02:16.791Z,61.65
2017-04-18T03:02:42.449Z,61.71
2017-04-18T03:03:08.030Z,61.84
2017-04-18T03:03:33.581Z,61.65
2017-04-18T03:03:59.138Z,61.84
2017-04-18T03:04:24.802Z,61.74
2017-04-18T03:04:50.341Z,61.74
2017-04-18T03:05:15.888Z,61.74
2017-04-18T03:05:41.451Z,61.46
2017-04-18T03:06:07.004Z,61.84
2017-04-18T03:06:32.558Z,61.65
2017-04-18T03:06:58.106Z,61.65
2017-04-18T03:07:23.652Z,61.84
2017-04-18T03:07:49.211Z,61.61
2017-04-18T03:08:14.772Z,61.65
2017-04-18T03:08:40.341Z,61.74
2017-04-18T03:09:05.903Z,61.74
2017-04-18T03:09:31.457Z,61.71
2017-04-18T03:09:57.013Z,61.84
2017-04-18T03:10:22.596Z,61.65
2017-04-18T03:10:48.169Z,61.65
2017-04-18T03:11:13.739Z,61.65
2017-04-18T03:11:39.283Z,61.71
2017-04-18T03:12:04.873Z,61.55
2017-04-18T03:12:30.424Z,61.71
2017-04-18T03:12:55.982Z,61.74
2017-04-18T03:13:21.554Z,61.74
2017-04-18T03:13:47.133Z,61.74
2017-04-18T03:14:12.703Z,61.81
2017-04-18T03:14:38.319Z,61.81
2017-04-18T03:15:03.880Z,61.71
2017-04-18T03:15:29.526Z,61.71
2017-04-18T03:15:55.093Z,61.61
2017-04-18T03:16:20.735Z,61.81
2017-04-18T03:16:46.323Z,61.74
2017-04-18T03:17:11.962Z,61.65
2017-04-18T03:17:37.521Z,61.84
2017-04-18T03:18:03.088Z,61.74
2017-04-18T03:18:28.651Z,61.74
2017-04-18T03:18:54.222Z,61.81
2017-04-18T03:19:19.789Z,61.65
2017-04-18T03:19:45.374Z,61.81
2017-04-18T03:20:10.923Z,61.84
2017-04-18T03:20:36.483Z,62.03
2017-04-18T03:21:02.052Z,61.91
2017-04-18T03:21:27.735Z,61.81
2017-04-18T03:21:53.290Z,61.91
2017-04-18T03:22:18.849Z,62.29
2017-04-18T03:22:44.557Z,62.19
2017-04-18T03:23:10.124Z,61.81
2017-04-18T03:23:35.786Z,62.03
2017-04-18T03:24:01.443Z,61.71
2017-04-18T03:24:27.015Z,61.52
2017-04-18T03:24:52.584Z,61.55
2017-04-18T03:25:18.179Z,62.13
2017-04-18T03:25:43.730Z,61.61
2017-04-18T03:26:09.292Z,61.74
2017-04-18T03:26:34.853Z,61.52
2017-04-18T03:27:00.483Z,61.65
2017-04-18T03:27:26.060Z,61.65
2017-04-18T03:27:51.621Z,61.74
2017-04-18T03:28:17.187Z,61.74
2017-04-18T03:28:42.738Z,61.84
2017-04-18T03:29:08.357Z,61.74
2017-04-18T03:29:34.125Z,61.65
2017-04-18T03:29:59.709Z,61.91
2017-04-18T03:30:25.269Z,61.74
2017-04-18T03:30:50.850Z,61.74
2017-04-18T03:31:16.423Z,61.94
2017-04-18T03:31:41.983Z,61.84
2017-04-18T03:32:07.532Z,62.29
2017-04-18T03:32:33.091Z,62.29
2017-04-18T03:32:58.669Z,62.19
2017-04-18T03:33:24.332Z,61.94
2017-04-18T03:33:49.889Z,62.19
2017-04-18T03:34:15.474Z,61.74
2017-04-18T03:34:41.043Z,62
2017-04-18T03:35:06.740Z,62.03
2017-04-18T03:35:32.304Z,62.1
2017-04-18T03:35:57.881Z,62.13
2017-04-18T03:36:23.541Z,61.91
2017-04-18T03:36:49.103Z,62.1
2017-04-18T03:37:14.694Z,62.19
2017-04-18T03:37:40.315Z,62.19
2017-04-18T03:38:05.880Z,62.1
2017-04-18T03:38:31.475Z,62.13
2017-04-18T03:38:57.042Z,62.19
2017-04-18T03:39:22.751Z,61.81
2017-04-18T03:39:48.289Z,62.38
2017-04-18T03:40:13.949Z,62.48
2017-04-18T03:40:39.503Z,62.48
2017-04-18T03:41:05.064Z,62.38
2017-04-18T03:41:30.704Z,62.48
2017-04-18T03:41:56.285Z,62.38
2017-04-18T03:42:21.905Z,62.29
2017-04-18T03:42:47.471Z,62.38
2017-04-18T03:43:13.034Z,62.48
2017-04-18T03:43:38.591Z,62
2017-04-18T03:44:04.171Z,61.81
2017-04-18T03:44:29.773Z,61.91
2017-04-18T03:44:55.344Z,62
2017-04-18T03:45:20.986Z,62.19
2017-04-18T03:45:46.545Z,62.23
2017-04-18T03:46:12.098Z,62.13
2017-04-18T03:46:37.663Z,62
2017-04-18T03:47:03.220Z,62.23
2017-04-18T03:47:28.791Z,62.38
2017-04-18T03:47:54.352Z,62.38
2017-04-18T03:48:19.926Z,62.48
2017-04-18T03:48:45.485Z,62.38
2017-04-18T03:49:11.086Z,62.38
2017-04-18T03:49:36.653Z,62.38
2017-04-18T03:50:02.217Z,62.19
2017-04-18T03:50:27.903Z,62.19
2017-04-18T03:50:53.498Z,62.38
2017-04-18T03:51:19.073Z,62.38
2017-04-18T03:51:44.634Z,62.29
2017-04-18T03:52:10.259Z,62.38
2017-04-18T03:52:35.841Z,62.48
2017-04-18T03:53:01.405Z,62.48
2017-04-18T03:53:27.063Z,62.68
2017-04-18T03:53:52.693Z,62.77
2017-04-18T03:54:18.264Z,62.77
2017-04-18T03:54:43.822Z,62.68
2017-04-18T03:55:09.403Z,62.38
2017-04-18T03:55:34.972Z,62.29
2017-04-18T03:56:00.543Z,62.38
2017-04-18T03:56:26.114Z,62.29
2017-04-18T03:56:51.683Z,62.48
2017-04-18T03:57:17.263Z,62.58
2017-04-18T03:57:42.823Z,62.58
2017-04-18T03:58:08.404Z,62.68
2017-04-18T03:58:33.972Z,62.38
2017-04-18T03:58:59.542Z,62.38
2017-04-18T03:59:25.164Z,62.58
2017-04-18T03:59:50.733Z,62.58
2017-04-18T04:00:16.292Z,62.58
2017-04-18T04:00:41.862Z,62.58
2017-04-18T04:01:07.410Z,62.68
2017-04-18T04:01:33.066Z,62.68
2017-04-18T04:01:58.629Z,62.68
2017-04-18T04:02:24.285Z,62.68
2017-04-18T04:02:49.891Z,62.29
2017-04-18T04:03:15.461Z,62.48
2017-04-18T04:03:41.035Z,62.48
2017-04-18T04:04:06.603Z,62.68
2017-04-18T04:04:32.172Z,62.58
2017-04-18T04:04:57.723Z,62.68
2017-04-18T04:05:23.319Z,62.58
2017-04-18T04:05:48.853Z,62.58
2017-04-18T04:06:14.411Z,62.68
2017-04-18T04:06:39.971Z,62.58
2017-04-18T04:07:05.531Z,62.48
2017-04-18T04:07:31.091Z,62.77
2017-04-18T04:07:56.650Z,62.68
2017-04-18T04:08:22.232Z,62.48
2017-04-18T04:08:47.822Z,62.77
2017-04-18T04:09:13.394Z,62.68
2017-04-18T04:09:39.045Z,62.77
2017-04-18T04:10:04.641Z,62.29
2017-04-18T04:10:30.243Z,62.48
2017-04-18T04:10:55.840Z,62.48
2017-04-18T04:11:21.423Z,62.68
2017-04-18T04:11:46.994Z,62.68
2017-04-18T04:12:12.554Z,62.38
2017-04-18T04:12:38.261Z,62.48
2017-04-18T04:13:03.817Z,62.48
2017-04-18T04:13:29.369Z,62.68
2017-04-18T04:13:54.928Z,62.48
2017-04-18T04:14:20.540Z,62.58
2017-04-18T04:14:46.100Z,62.58
2017-04-18T04:15:11.672Z,62.58
2017-04-18T04:15:37.241Z,62.58
2017-04-18T04:16:02.802Z,62.68
2017-04-18T04:16:28.428Z,62.58
2017-04-18T04:16:54.044Z,62.48
2017-04-18T04:17:19.552Z,62.48
2017-04-18T04:17:45.143Z,62.48
2017-04-18T04:18:10.718Z,62.68
2017-04-18T04:18:36.310Z,62.58
2017-04-18T04:19:01.884Z,62.48
2017-04-18T04:19:27.453Z,62.48
2017-04-18T04:19:53.011Z,62.48
2017-04-18T04:21:06.764Z,62.68
2017-04-18T04:21:32.333Z,62.48
2017-04-18T04:21:57.882Z,62.48
2017-04-18T04:22:23.459Z,62.48
2017-04-18T04:22:49.020Z,62.48
2017-04-18T04:23:14.651Z,62.19
2017-04-18T04:23:40.308Z,62.38
2017-04-18T04:24:05.873Z,62.29
2017-04-18T04:24:31.453Z,62.48
2017-04-18T04:24:57.009Z,62.38
2017-04-18T04:25:22.580Z,62.48
2017-04-18T04:25:48.253Z,62
2017-04-18T04:26:13.811Z,62.1
2017-04-18T04:26:39.393Z,62.19
2017-04-18T04:27:04.948Z,61.81
2017-04-18T04:27:30.498Z,62.03
2017-04-18T04:27:56.063Z,62.13
2017-04-18T04:28:21.671Z,61.81
2017-04-18T04:28:47.232Z,61.81
2017-04-18T04:29:12.803Z,61.91
2017-04-18T04:29:38.362Z,61.84
2017-04-18T04:30:03.916Z,61.81
2017-04-18T04:30:29.491Z,61.81
2017-04-18T04:30:55.182Z,61.81
2017-04-18T04:31:20.754Z,61.81
2017-04-18T04:31:46.319Z,61.61
2017-04-18T04:32:11.882Z,61.61
2017-04-18T04:32:37.456Z,61.61
2017-04-18T04:33:03.015Z,61.55
2017-04-18T04:33:28.584Z,61.52
2017-04-18T04:33:54.139Z,61.71
2017-04-18T04:34:19.689Z,61.84
2017-04-18T04:34:45.222Z,61.55
2017-04-18T04:35:10.799Z,61.71
2017-04-18T04:35:36.351Z,61.65
2017-04-18T04:36:01.891Z,61.91
2017-04-18T04:36:27.441Z,61.91
2017-04-18T04:36:52.986Z,61.91
2017-04-18T04:37:18.540Z,62
2017-04-18T04:37:44.122Z,62.1
2017-04-18T04:38:09.676Z,62.29
2017-04-18T04:38:35.224Z,62.1
2017-04-18T04:39:00.763Z,61.91
2017-04-18T04:39:26.321Z,62
2017-04-18T04:39:51.888Z,62.38
2017-04-18T04:40:17.458Z,62.48
2017-04-18T04:40:43.013Z,62.48
2017-04-18T04:41:08.595Z,62.48
2017-04-18T04:41:34.197Z,62.29
2017-04-18T04:41:59.856Z,62.29
2017-04-18T04:42:25.417Z,62.29
2017-04-18T04:42:50.993Z,62.29
2017-04-18T04:43:16.560Z,62.58
2017-04-18T04:43:42.124Z,62.29
2017-04-18T04:44:07.700Z,62.38
2017-04-18T04:44:33.263Z,62.48
2017-04-18T04:44:58.843Z,62.58
2017-04-18T04:45:24.456Z,62.48
2017-04-18T04:45:50.040Z,62.48
2017-04-18T04:46:15.614Z,62.19
2017-04-18T04:46:41.169Z,62.29
2017-04-18T04:47:06.814Z,62.29
2017-04-18T04:47:32.374Z,62.29
2017-04-18T04:47:57.954Z,62.19
2017-04-18T04:48:23.522Z,62.19
2017-04-18T04:48:49.087Z,62.48
2017-04-18T04:49:14.651Z,62.19
2017-04-18T04:49:40.234Z,62.19
2017-04-18T04:50:05.812Z,62.38
2017-04-18T04:50:31.384Z,62.38
2017-04-18T04:50:56.987Z,62.38
2017-04-18T04:51:22.555Z,62.29
2017-04-18T04:51:48.120Z,62.29
2017-04-18T04:52:13.799Z,62.29
2017-04-18T04:52:39.356Z,62.29
2017-04-18T04:53:04.921Z,62.68
2017-04-18T04:53:30.505Z,62.48
2017-04-18T04:53:56.072Z,62.68
2017-04-18T04:54:21.674Z,62.77
2017-04-18T04:54:47.234Z,62.68
2017-04-18T04:55:12.785Z,62.29
2017-04-18T04:55:38.361Z,62.48
2017-04-18T04:56:03.989Z,62.48
2017-04-18T04:56:29.530Z,62.58
2017-04-18T04:56:55.074Z,62.58
2017-04-18T04:57:20.613Z,62.38
2017-04-18T04:57:46.171Z,62.48
2017-04-18T04:58:11.765Z,62.29
2017-04-18T04:58:37.336Z,62.29
2017-04-18T04:59:02.984Z,62.29
2017-04-18T04:59:28.541Z,62.48
2017-04-18T04:59:54.102Z,62.29
2017-04-18T05:00:19.675Z,62.68
2017-04-18T05:00:45.235Z,62.48
2017-04-18T05:01:10.825Z,62.48
2017-04-18T05:01:36.398Z,62.48
2017-04-18T05:02:01.963Z,62.19
2017-04-18T05:02:27.525Z,62.29
2017-04-18T05:02:53.101Z,62.48
2017-04-18T05:03:18.683Z,62.48
2017-04-18T05:03:44.253Z,62.58
2017-04-18T05:04:09.805Z,62.48
2017-04-18T05:04:35.353Z,62.29
2017-04-18T05:05:00.913Z,62.48
2017-04-18T05:05:26.506Z,62.29
2017-04-18T05:05:52.034Z,62.29
2017-04-18T05:06:17.604Z,62.68
2017-04-18T05:06:43.195Z,62.48
2017-04-18T05:07:08.833Z,62.48
2017-04-18T05:07:34.397Z,62.58
2017-04-18T05:07:59.963Z,62.38
2017-04-18T05:08:25.587Z,62.48
2017-04-18T05:08:51.161Z,62.38
2017-04-18T05:09:16.731Z,62.38
2017-04-18T05:09:42.294Z,62.58
2017-04-18T05:10:07.890Z,62.68
2017-04-18T05:10:33.486Z,62.68
2017-04-18T05:10:59.063Z,62.48
2017-04-18T05:11:24.621Z,62.77
2017-04-18T05:11:50.193Z,62.58
2017-04-18T05:12:15.787Z,63.06
2017-04-18T05:12:41.355Z,62.96
2017-04-18T05:13:06.923Z,63.06
2017-04-18T05:13:32.494Z,62.87
2017-04-18T05:13:58.116Z,62.77
2017-04-18T05:14:23.695Z,63.06
2017-04-18T05:14:49.264Z,62.87
2017-04-18T05:15:14.817Z,62.87
2017-04-18T05:15:40.440Z,62.77
2017-04-18T05:16:06.046Z,63.06
2017-04-18T05:16:31.603Z,63.06
2017-04-18T05:16:57.162Z,62.96
2017-04-18T05:17:22.708Z,62.77
2017-04-18T05:17:48.263Z,63.25
2017-04-18T05:18:13.866Z,63.06
2017-04-18T05:18:39.433Z,63.06
2017-04-18T05:19:05.008Z,63.15
2017-04-18T05:19:30.585Z,62.96
2017-04-18T05:19:56.153Z,62.87
2017-04-18T05:20:21.722Z,63.15
2017-04-18T05:20:47.300Z,62.96
2017-04-18T05:21:12.883Z,62.87
2017-04-18T05:21:38.461Z,62.96
2017-04-18T05:22:04.018Z,63.54
2017-04-18T05:22:29.593Z,63.15
2017-04-18T05:22:55.154Z,63.35
2017-04-18T05:23:20.805Z,63.35
2017-04-18T05:23:46.373Z,63.25
2017-04-18T05:24:11.944Z,63.25
2017-04-18T05:24:37.525Z,63.25
2017-04-18T05:25:03.103Z,63.06
2017-04-18T05:25:28.677Z,63.25
2017-04-18T05:26:37.495Z,63.25
2017-04-18T05:27:03.064Z,63.45
2017-04-18T05:27:28.622Z,63.54
2017-04-18T05:27:54.175Z,63.54
2017-04-18T05:28:19.732Z,63.83
2017-04-18T05:28:45.323Z,63.64
2017-04-18T05:29:10.925Z,63.54
2017-04-18T05:29:36.508Z,63.45
2017-04-18T05:30:02.101Z,63.54
2017-04-18T05:30:27.659Z,63.45
2017-04-18T05:30:53.306Z,63.45
2017-04-18T05:31:18.871Z,63.25
2017-04-18T05:31:44.559Z,63.45
2017-04-18T05:32:10.124Z,63.64
2017-04-18T05:32:35.697Z,63.83
2017-04-18T05:33:01.342Z,63.73
2017-04-18T05:33:26.904Z,63.73
2017-04-18T05:33:52.470Z,63.83
2017-04-18T05:34:18.047Z,63.45
2017-04-18T05:34:43.623Z,63.15
2017-04-18T05:35:09.189Z,63.25
2017-04-18T05:35:34.753Z,63.35
2017-04-18T05:36:00.323Z,63.25
2017-04-18T05:36:25.943Z,63.25
2017-04-18T05:36:51.525Z,63.35
2017-04-18T05:37:17.085Z,63.35
2017-04-18T05:37:42.663Z,63.45
2017-04-18T05:38:08.320Z,63.45
2017-04-18T05:38:33.807Z,63.35
2017-04-18T05:38:59.376Z,63.45
2017-04-18T05:39:24.956Z,63.25
2017-04-18T05:39:50.539Z,63.25
2017-04-18T05:40:16.112Z,63.35
2017-04-18T05:40:41.676Z,63.25
2017-04-18T05:41:07.243Z,63.25
2017-04-18T05:41:32.803Z,63.25
2017-04-18T05:41:58.361Z,63.25
2017-04-18T05:42:23.929Z,63.45
2017-04-18T05:42:49.488Z,63.35
2017-04-18T05:43:15.045Z,63.35
2017-04-18T05:43:40.616Z,63.15
2017-04-18T05:44:06.253Z,63.25
2017-04-18T05:44:31.810Z,63.06
2017-04-18T05:44:57.373Z,63.15
2017-04-18T05:45:22.936Z,63.35
2017-04-18T05:45:48.589Z,63.35
2017-04-18T05:46:14.238Z,63.35
2017-04-18T05:46:39.797Z,63.35
2017-04-18T05:47:05.364Z,63.45
2017-04-18T05:47:31.053Z,63.25
2017-04-18T05:47:56.622Z,63.06
2017-04-18T05:48:22.215Z,63.15
2017-04-18T05:48:47.844Z,63.35
2017-04-18T05:49:13.421Z,63.35
2017-04-18T05:49:38.993Z,63.25
2017-04-18T05:50:04.734Z,63.35
2017-04-18T05:50:30.294Z,63.15
2017-04-18T05:50:55.864Z,63.15
2017-04-18T05:51:21.522Z,63.15
2017-04-18T05:51:47.093Z,63.25
2017-04-18T05:52:12.652Z,63.25
2017-04-18T05:52:38.351Z,63.15
2017-04-18T05:53:03.934Z,63.35
2017-04-18T05:53:29.498Z,63.35
2017-04-18T05:53:55.054Z,63.35
2017-04-18T05:54:20.679Z,63.35
2017-04-18T05:54:46.241Z,63.35
2017-04-18T05:55:11.826Z,63.35
2017-04-18T05:55:37.541Z,63.35
2017-04-18T05:56:03.089Z,63.35
2017-04-18T05:56:28.655Z,63.45
2017-04-18T05:57:27.084Z,63.35
2017-04-18T05:57:52.644Z,63.45
2017-04-18T05:58:18.213Z,63.35
2017-04-18T05:58:43.775Z,63.25
2017-04-18T05:59:09.334Z,63.25
2017-04-18T05:59:34.914Z,63.25
2017-04-18T06:00:00.492Z,63.45
2017-04-18T06:00:26.072Z,63.35
2017-04-18T06:01:34.640Z,63.25
2017-04-18T06:02:00.207Z,63.25
2017-04-18T06:02:25.764Z,63.45
2017-04-18T06:02:51.334Z,63.25
2017-04-18T06:03:16.913Z,63.15
2017-04-18T06:03:42.468Z,63.45
2017-04-18T06:04:08.131Z,63.25
2017-04-18T06:04:33.702Z,63.25
2017-04-18T06:04:59.236Z,63.25
2017-04-18T06:05:24.800Z,63.15
2017-04-18T06:05:50.373Z,63.35
2017-04-18T06:06:15.948Z,63.25
2017-04-18T06:06:41.534Z,63.35
2017-04-18T06:07:07.091Z,63.45
2017-04-18T06:07:32.662Z,63.35
2017-04-18T06:07:58.234Z,63.45
2017-04-18T06:08:23.793Z,63.45
2017-04-18T06:08:49.434Z,63.25
2017-04-18T06:09:15.035Z,63.45
2017-04-18T06:09:40.588Z,63.25
2017-04-18T06:10:06.148Z,63.25
2017-04-18T06:10:31.727Z,63.25
2017-04-18T06:10:57.290Z,63.25
2017-04-18T06:11:22.843Z,63.45
2017-04-18T06:11:48.422Z,63.35
2017-04-18T06:12:13.984Z,63.25
2017-04-18T06:12:39.537Z,63.25
2017-04-18T06:13:05.227Z,63.25
2017-04-18T06:13:30.790Z,63.25
2017-04-18T06:13:56.381Z,63.25
2017-04-18T06:14:22.012Z,63.25
2017-04-18T06:14:47.564Z,63.25
2017-04-18T06:15:13.165Z,63.15
2017-04-18T06:15:38.752Z,63.35
2017-04-18T06:16:04.853Z,63.25
2017-04-18T06:16:30.573Z,63.25
2017-04-18T06:16:56.133Z,63.25
2017-04-18T06:17:21.726Z,63.15
2017-04-18T06:17:47.319Z,63.25
2017-04-18T06:18:12.984Z,63.25
2017-04-18T06:18:38.567Z,63.25
2017-04-18T06:19:04.144Z,63.25
2017-04-18T06:19:29.693Z,63.45
2017-04-18T06:19:55.262Z,63.25
2017-04-18T06:20:20.819Z,63.35
2017-04-18T06:20:46.518Z,63.35
2017-04-18T06:21:12.095Z,63.45
2017-04-18T06:21:37.665Z,63.64
2017-04-18T06:22:03.257Z,63.54
2017-04-18T06:22:28.924Z,63.83
2017-04-18T06:22:54.482Z,63.83
2017-04-18T06:23:20.043Z,63.54
2017-04-18T06:23:45.643Z,63.92
2017-04-18T06:24:11.273Z,63.73
2017-04-18T06:24:36.874Z,63.54
2017-04-18T06:25:02.443Z,63.73
2017-04-18T06:25:28.131Z,63.54
2017-04-18T06:25:53.680Z,63.45
2017-04-18T06:26:19.282Z,63.54
2017-04-18T06:26:44.864Z,63.54
2017-04-18T06:27:10.402Z,63.45
2017-04-18T06:27:35.953Z,63.45
2017-04-18T06:28:01.511Z,63.45
2017-04-18T06:28:27.156Z,63.64
2017-04-18T06:28:52.721Z,63.54
2017-04-18T06:29:18.300Z,63.45
2017-04-18T06:29:43.851Z,63.45
2017-04-18T06:30:09.428Z,63.54
2017-04-18T06:30:35.063Z,63.83
2017-04-18T06:31:00.646Z,63.35
2017-04-18T06:31:26.338Z,63.45
2017-04-18T06:31:51.936Z,63.64
2017-04-18T06:32:17.507Z,63.54
2017-04-18T06:32:43.046Z,63.25
2017-04-18T06:33:08.704Z,63.73
2017-04-18T06:33:34.280Z,63.73
2017-04-18T06:33:59.857Z,63.64
2017-04-18T06:34:25.438Z,63.92
2017-04-18T06:34:51.190Z,63.64
2017-04-18T06:35:16.762Z,63.73
2017-04-18T06:35:42.328Z,63.45
2017-04-18T06:36:07.910Z,63.92
2017-04-18T06:36:33.491Z,63.92
2017-04-18T06:36:59.065Z,63.83
2017-04-18T06:37:24.625Z,63.73
2017-04-18T06:37:50.183Z,63.35
2017-04-18T06:38:15.748Z,63.92
2017-04-18T06:38:41.311Z,64.02
2017-04-18T06:39:06.880Z,63.64
2017-04-18T06:39:32.474Z,63.64
2017-04-18T06:39:58.124Z,63.73
2017-04-18T06:40:23.703Z,63.92
2017-04-18T06:40:49.295Z,64.12
2017-04-18T06:41:14.951Z,63.54
2017-04-18T06:41:40.533Z,63.45
2017-04-18T06:42:06.106Z,63.83
2017-04-18T06:42:31.771Z,63.45
2017-04-18T06:42:57.345Z,63.54
2017-04-18T06:43:22.916Z,63.45
2017-04-18T06:43:48.505Z,64.12
2017-04-18T06:44:14.085Z,63.64
2017-04-18T06:44:39.653Z,63.64
2017-04-18T06:45:05.276Z,63.54
2017-04-18T06:45:30.904Z,63.64
2017-04-18T06:45:56.469Z,63.92
2017-04-18T06:46:22.032Z,63.64
2017-04-18T06:46:47.601Z,63.64
2017-04-18T06:47:13.234Z,63.64
2017-04-18T06:47:38.853Z,63.73
2017-04-18T06:48:04.432Z,63.83
2017-04-18T06:48:29.999Z,63.64
2017-04-18T06:48:55.581Z,63.54
2017-04-18T06:49:21.155Z,63.92
2017-04-18T06:49:46.705Z,63.64
2017-04-18T06:50:12.302Z,63.64
2017-04-18T06:50:37.865Z,63.64
2017-04-18T06:51:03.454Z,63.45
2017-04-18T06:51:29.172Z,63.45
2017-04-18T06:51:54.795Z,63.45
2017-04-18T06:52:20.399Z,63.92
2017-04-18T06:52:45.954Z,63.45
2017-04-18T06:53:11.543Z,64.02
2017-04-18T06:53:37.101Z,63.64
2017-04-18T06:54:02.643Z,64.31
2017-04-18T06:54:28.225Z,63.73
2017-04-18T06:54:53.812Z,63.64
2017-04-18T06:55:19.382Z,64.02
2017-04-18T06:55:44.949Z,64.22
2017-04-18T06:56:10.499Z,64.12
2017-04-18T06:56:36.047Z,63.73
2017-04-18T06:57:01.707Z,63.64
2017-04-18T06:57:27.289Z,63.64
2017-04-18T06:57:52.873Z,63.64
2017-04-18T06:58:18.488Z,63.73
2017-04-18T06:58:44.048Z,63.73
2017-04-18T06:59:09.612Z,63.73
2017-04-18T06:59:35.193Z,63.64
2017-04-18T07:00:00.789Z,63.64
2017-04-18T07:00:26.357Z,63.45
2017-04-18T07:00:51.925Z,63.64
2017-04-18T07:01:17.493Z,63.45
2017-04-18T07:01:43.060Z,63.73
2017-04-18T07:02:08.655Z,63.73
2017-04-18T07:02:34.231Z,63.45
2017-04-18T07:02:59.803Z,63.64
2017-04-18T07:03:25.399Z,63.83
2017-04-18T07:03:50.971Z,63.54
2017-04-18T07:04:16.531Z,63.73
2017-04-18T07:04:42.209Z,63.64
2017-04-18T07:05:07.771Z,63.83
2017-04-18T07:05:33.365Z,63.92
2017-04-18T07:05:58.922Z,63.92
2017-04-18T07:06:24.481Z,63.64
2017-04-18T07:06:50.050Z,63.73
2017-04-18T07:07:15.724Z,63.83
2017-04-18T07:07:41.314Z,63.73
2017-04-18T07:08:06.863Z,63.64
2017-04-18T07:08:32.484Z,63.64
2017-04-18T07:08:58.138Z,63.54
2017-04-18T07:09:23.715Z,63.64
2017-04-18T07:09:49.276Z,63.83
2017-04-18T07:10:14.891Z,63.73
2017-04-18T07:10:40.441Z,63.45
2017-04-18T07:11:06.006Z,63.54
2017-04-18T07:11:31.576Z,63.64
2017-04-18T07:11:57.201Z,64.02
2017-04-18T07:12:22.775Z,63.83
2017-04-18T07:12:48.361Z,64.12
2017-04-18T07:13:13.931Z,64.02
2017-04-18T07:13:39.502Z,63.83
2017-04-18T07:14:05.068Z,63.54
2017-04-18T07:14:30.649Z,63.83
2017-04-18T07:14:56.263Z,63.73
2017-04-18T07:15:21.902Z,63.64
2017-04-18T07:15:47.459Z,63.54
2017-04-18T07:16:13.033Z,63.45
2017-04-18T07:16:38.652Z,63.54
2017-04-18T07:17:04.223Z,63.45
2017-04-18T07:17:29.788Z,63.45
2017-04-18T07:17:55.371Z,63.35
2017-04-18T07:18:20.940Z,63.45
2017-04-18T07:18:46.498Z,63.45
2017-04-18T07:19:12.091Z,63.54
2017-04-18T07:19:37.662Z,63.73
2017-04-18T07:20:03.229Z,63.64
2017-04-18T07:20:28.790Z,63.54
2017-04-18T07:20:54.350Z,63.64
2017-04-18T07:21:19.933Z,63.54
2017-04-18T07:21:45.497Z,63.64
2017-04-18T07:22:11.065Z,63.83
2017-04-18T07:22:36.622Z,63.83
2017-04-18T07:23:02.184Z,63.73
2017-04-18T07:23:27.750Z,63.73
2017-04-18T07:23:53.424Z,64.22
2017-04-18T07:24:51.872Z,63.54
2017-04-18T07:25:17.419Z,63.64
2017-04-18T07:25:42.986Z,63.64
2017-04-18T07:26:08.564Z,63.54
2017-04-18T07:26:34.110Z,63.64
2017-04-18T07:26:59.692Z,63.73
2017-04-18T07:27:25.274Z,63.54
2017-04-18T07:27:50.839Z,63.54
2017-04-18T07:28:16.403Z,63.45
2017-04-18T07:28:41.985Z,63.54
2017-04-18T07:29:07.543Z,63.45
2017-04-18T07:29:33.113Z,63.45
2017-04-18T07:29:58.683Z,63.35
2017-04-18T07:30:24.339Z,63.45
2017-04-18T07:30:49.918Z,63.35
2017-04-18T07:31:15.490Z,63.73
2017-04-18T07:31:41.065Z,63.54
2017-04-18T07:32:06.636Z,63.73
2017-04-18T07:32:32.311Z,63.64
2017-04-18T07:32:57.879Z,63.64
2017-04-18T07:33:23.465Z,63.83
2017-04-18T07:33:49.094Z,63.73
2017-04-18T07:34:14.644Z,63.54
2017-04-18T07:34:40.271Z,63.83
2017-04-18T07:35:05.863Z,63.54
2017-04-18T07:35:31.433Z,63.73
2017-04-18T07:35:56.993Z,63.64
2017-04-18T07:36:22.631Z,63.64
2017-04-18T07:36:48.198Z,63.73
2017-04-18T07:37:13.748Z,63.73
2017-04-18T07:37:39.311Z,63.54
2017-04-18T07:38:04.887Z,63.54
2017-04-18T07:38:30.487Z,63.73
2017-04-18T07:38:56.057Z,63.64
2017-04-18T07:39:21.642Z,63.64
2017-04-18T07:39:47.207Z,63.64
2017-04-18T07:40:12.786Z,63.64
2017-04-18T07:40:38.438Z,64.31
2017-04-18T07:41:04.015Z,63.92
2017-04-18T07:41:29.553Z,63.64
2017-04-18T07:41:55.126Z,63.64
2017-04-18T07:42:20.700Z,63.64
2017-04-18T07:42:46.272Z,63.64
2017-04-18T07:43:11.865Z,63.54
2017-04-18T07:43:37.443Z,63.73
2017-04-18T07:44:03.000Z,63.64
2017-04-18T07:44:28.564Z,63.64
2017-04-18T07:44:54.115Z,63.54
2017-04-18T07:45:19.710Z,63.54
2017-04-18T07:45:45.260Z,64.02
2017-04-18T07:46:10.844Z,63.83
2017-04-18T07:46:36.421Z,63.64
2017-04-18T07:47:02.003Z,63.64
2017-04-18T07:47:27.586Z,63.45
2017-04-18T07:47:53.160Z,63.83
2017-04-18T07:48:18.717Z,63.73
2017-04-18T07:48:44.289Z,63.54
2017-04-18T07:49:09.951Z,63.64
2017-04-18T07:49:35.538Z,63.64
2017-04-18T07:50:01.131Z,63.73
2017-04-18T07:50:26.796Z,64.02
2017-04-18T07:50:52.352Z,63.83
2017-04-18T07:51:17.929Z,63.54
2017-04-18T07:51:43.514Z,63.45
2017-04-18T07:52:09.072Z,63.64
2017-04-18T07:52:34.639Z,63.54
2017-04-18T07:53:00.221Z,63.45
2017-04-18T07:53:25.798Z,63.35
2017-04-18T07:53:51.424Z,63.73
2017-04-18T07:54:16.986Z,63.73
2017-04-18T07:54:42.553Z,63.73
2017-04-18T07:55:08.132Z,63.64
2017-04-18T07:55:33.711Z,63.54
2017-04-18T07:55:59.274Z,63.54
2017-04-18T07:56:24.845Z,63.54
2017-04-18T07:56:50.408Z,63.45
2017-04-18T07:57:15.994Z,63.64
2017-04-18T07:57:41.585Z,63.45
2017-04-18T07:58:07.136Z,63.64
2017-04-18T07:58:32.710Z,63.73
2017-04-18T07:58:58.284Z,63.73
2017-04-18T07:59:23.853Z,63.54
2017-04-18T07:59:49.414Z,63.64
2017-04-18T08:00:14.984Z,63.73
2017-04-18T08:00:40.556Z,63.73
2017-04-18T08:01:06.128Z,63.45
2017-04-18T08:01:31.731Z,63.45
2017-04-18T08:01:57.301Z,63.45
2017-04-18T08:02:22.854Z,63.54
2017-04-18T08:02:48.441Z,63.45
2017-04-18T08:03:14.034Z,63.64
2017-04-18T08:03:39.608Z,63.73
2017-04-18T08:04:05.185Z,64.22
2017-04-18T08:04:30.930Z,63.92
2017-04-18T08:04:56.493Z,63.64
2017-04-18T08:05:22.065Z,63.73
2017-04-18T08:05:47.694Z,63.54
2017-04-18T08:06:13.309Z,64.02
2017-04-18T08:06:38.915Z,63.45
2017-04-18T08:07:04.482Z,63.64
2017-04-18T08:07:30.069Z,63.64
2017-04-18T08:07:55.668Z,63.64
2017-04-18T08:08:21.228Z,64.22
2017-04-18T08:08:46.805Z,63.45
2017-04-18T08:09:12.385Z,63.54
2017-04-18T08:09:38.114Z,63.92
2017-04-18T08:10:03.694Z,63.64
2017-04-18T08:10:29.247Z,63.64
2017-04-18T08:10:54.810Z,63.45
2017-04-18T08:11:20.370Z,63.64
2017-04-18T08:11:45.947Z,63.64
2017-04-18T08:12:11.541Z,63.64
2017-04-18T08:12:37.131Z,63.64
2017-04-18T08:13:02.695Z,64.02
2017-04-18T08:13:28.275Z,63.83
2017-04-18T08:13:53.952Z,63.73
2017-04-18T08:14:19.514Z,63.83
2017-04-18T08:14:45.077Z,63.73
2017-04-18T08:15:10.657Z,63.83
2017-04-18T08:15:36.229Z,63.73
2017-04-18T08:16:01.811Z,63.64
2017-04-18T08:16:27.456Z,63.45
2017-04-18T08:16:53.034Z,63.73
2017-04-18T08:17:18.609Z,64.31
2017-04-18T08:17:44.189Z,63.64
2017-04-18T08:18:09.764Z,63.54
2017-04-18T08:18:35.331Z,63.73
2017-04-18T08:19:00.929Z,63.45
2017-04-18T08:19:26.498Z,63.54
2017-04-18T08:19:52.040Z,63.54
2017-04-18T08:20:17.604Z,63.73
2017-04-18T08:20:43.178Z,63.64
2017-04-18T08:21:08.774Z,63.54
2017-04-18T08:21:34.329Z,63.64
2017-04-18T08:21:59.908Z,63.64
2017-04-18T08:22:25.486Z,63.54
2017-04-18T08:22:51.054Z,63.54
2017-04-18T08:23:16.632Z,63.54
2017-04-18T08:23:42.202Z,63.54
2017-04-18T08:24:07.861Z,63.54
2017-04-18T08:24:33.433Z,63.73
2017-04-18T08:24:58.989Z,64.02
2017-04-18T08:25:24.579Z,63.73
2017-04-18T08:25:50.233Z,63.64
2017-04-18T08:26:15.794Z,63.54
2017-04-18T08:26:41.349Z,63.64
2017-04-18T08:27:06.924Z,63.54
2017-04-18T08:27:32.527Z,63.45
2017-04-18T08:27:58.093Z,63.54
2017-04-18T08:28:23.653Z,63.35
2017-04-18T08:28:49.207Z,63.92
2017-04-18T08:29:14.782Z,63.35
2017-04-18T08:29:40.341Z,63.35
2017-04-18T08:30:05.911Z,63.45
2017-04-18T08:30:31.606Z,63.54
2017-04-18T08:30:57.261Z,63.54
2017-04-18T08:31:22.829Z,63.35
2017-04-18T08:31:48.485Z,63.73
2017-04-18T08:32:14.113Z,63.35
2017-04-18T08:32:39.666Z,63.45
2017-04-18T08:33:05.253Z,63.45
2017-04-18T08:33:30.825Z,63.45
2017-04-18T08:33:56.414Z,63.35